Time;durP1;ratioP1;P1;durP2;ratioP2;P2;SDS_P1;SDS_P2;PMS_P1;PMS_P2;Temp;Humidity;BMP_temperature;BMP_pressure;BME280_temperature;BME280_humidity;BME280_pressure;Samples;Min_cycle;Max_cycle;Signal;HPM_P1;HPM_P2
2022/03/22 00:01:21;;;;;;;14.17;9.17;;;2.10;99.90;;;;;;4953648;28;20188;-74
2022/03/22 00:03:47;;;;;;;17.73;10.00;;;2.00;99.90;;;;;;4953363;28;20219;-73
2022/03/22 00:06:13;;;;;;;12.60;8.97;;;2.00;99.90;;;;;;4953341;28;20428;-75
2022/03/22 00:08:38;;;;;;;17.80;9.30;;;2.00;99.90;;;;;;4954000;28;20220;-75
2022/03/22 00:11:04;;;;;;;15.00;9.77;;;1.90;99.90;;;;;;4953837;28;20467;-75
2022/03/22 00:13:29;;;;;;;13.33;9.60;;;1.90;99.90;;;;;;4952989;29;20208;-74
2022/03/22 00:15:56;;;;;;;11.77;8.97;;;1.80;99.90;;;;;;4954059;29;20236;-74
2022/03/22 00:18:22;;;;;;;21.47;9.80;;;1.80;99.90;;;;;;4953294;28;20314;-75
2022/03/22 00:20:49;;;;;;;17.40;10.50;;;1.80;99.90;;;;;;4953651;28;20460;-74
2022/03/22 00:23:15;;;;;;;14.00;9.90;;;1.80;99.90;;;;;;4953392;28;20421;-75
2022/03/22 00:25:41;;;;;;;18.27;9.87;;;1.70;99.90;;;;;;4953618;28;20419;-75
2022/03/22 00:28:07;;;;;;;15.60;9.63;;;1.70;99.90;;;;;;4953577;29;20408;-73
2022/03/22 00:30:35;;;;;;;16.07;10.63;;;1.70;99.90;;;;;;4953267;28;20192;-74
2022/03/22 00:33:03;;;;;;;19.93;10.33;;;1.70;99.90;;;;;;4952984;28;21054;-75
2022/03/22 00:35:36;;;;;;;20.73;10.10;;;1.60;99.90;;;;;;4953116;28;20435;-75
2022/03/22 00:38:03;;;;;;;18.67;9.80;;;1.50;99.90;;;;;;4953256;28;20493;-75
2022/03/22 00:40:29;;;;;;;17.10;10.43;;;1.60;99.90;;;;;;4953055;28;20414;-75
2022/03/22 00:42:55;;;;;;;12.50;8.50;;;1.60;99.90;;;;;;4952662;28;20839;-75
2022/03/22 00:45:23;;;;;;;15.53;8.60;;;1.60;99.90;;;;;;4952510;28;20473;-75
2022/03/22 00:47:50;;;;;;;17.73;9.80;;;1.60;99.90;;;;;;4953212;28;20421;-74
2022/03/22 00:50:19;;;;;;;13.87;8.93;;;1.60;99.90;;;;;;4953026;28;20423;-75
2022/03/22 00:52:45;;;;;;;12.50;8.70;;;1.50;99.90;;;;;;4951568;28;20529;-72
2022/03/22 00:55:12;;;;;;;13.70;9.07;;;1.50;99.90;;;;;;4952336;29;20415;-74
2022/03/22 00:57:38;;;;;;;17.77;10.03;;;1.50;99.90;;;;;;4952505;28;20619;-74
2022/03/22 01:00:07;;;;;;;22.73;9.00;;;1.40;99.90;;;;;;4952805;28;20512;-75
2022/03/22 01:02:39;;;;;;;13.20;8.80;;;1.40;99.90;;;;;;4952675;28;20435;-74
2022/03/22 01:05:07;;;;;;;15.00;10.47;;;1.30;99.90;;;;;;4952122;29;20476;-74
2022/03/22 01:07:34;;;;;;;16.63;8.53;;;1.30;99.90;;;;;;4952881;28;20423;-75
2022/03/22 01:10:02;;;;;;;10.80;8.37;;;1.30;99.90;;;;;;4952059;28;20460;-73
2022/03/22 01:12:28;;;;;;;13.47;8.67;;;1.20;99.90;;;;;;4952167;28;20432;-73
2022/03/22 01:14:53;;;;;;;14.20;9.20;;;1.20;99.90;;;;;;4951793;29;20488;-75
2022/03/22 01:17:19;;;;;;;10.23;8.03;;;1.30;99.90;;;;;;4952649;29;20178;-74
2022/03/22 01:19:45;;;;;;;13.80;9.10;;;1.20;99.90;;;;;;4951945;28;20187;-75
2022/03/22 01:22:11;;;;;;;15.50;9.03;;;1.20;99.90;;;;;;4952465;28;20432;-74
2022/03/22 01:24:37;;;;;;;16.00;10.33;;;1.10;99.90;;;;;;4951661;28;20929;-75
2022/03/22 01:27:03;;;;;;;15.83;9.73;;;1.10;99.90;;;;;;4952603;28;20925;-75
2022/03/22 01:29:28;;;;;;;14.40;9.87;;;1.10;99.90;;;;;;4951373;28;20184;-74
2022/03/22 01:31:55;;;;;;;13.03;8.97;;;1.10;99.90;;;;;;4952746;28;20216;-74
2022/03/22 01:34:21;;;;;;;15.00;9.17;;;1.00;99.90;;;;;;4951479;28;20309;-74
2022/03/22 01:36:46;;;;;;;11.67;8.43;;;1.00;99.90;;;;;;4952325;28;20447;-73
2022/03/22 01:39:12;;;;;;;14.47;9.17;;;0.90;99.90;;;;;;4952296;29;20165;-75
2022/03/22 01:41:37;;;;;;;12.23;8.47;;;0.90;99.90;;;;;;4951266;28;20199;-75
2022/03/22 01:44:03;;;;;;;14.30;9.30;;;0.90;99.90;;;;;;4951808;29;20721;-75
2022/03/22 01:46:29;;;;;;;12.97;8.50;;;0.90;99.90;;;;;;4951677;28;20172;-74
2022/03/22 01:48:55;;;;;;;17.70;9.87;;;0.80;99.90;;;;;;4952445;29;20530;-75
2022/03/22 01:51:21;;;;;;;19.03;9.90;;;0.80;99.90;;;;;;4951689;28;20196;-74
2022/03/22 01:53:48;;;;;;;14.00;9.77;;;0.80;99.90;;;;;;4951619;28;20232;-74
2022/03/22 01:56:14;;;;;;;18.47;9.60;;;0.80;99.90;;;;;;4951397;28;20414;-74
2022/03/22 01:58:40;;;;;;;16.17;8.57;;;0.80;99.90;;;;;;4952252;29;20422;-75
2022/03/22 03:31:43;;;;;;;16.37;10.03;;;0.30;99.90;;;;;;5592710;23;20536;-75
2022/03/22 03:34:09;;;;;;;18.67;11.77;;;0.30;99.90;;;;;;4992267;28;20539;-76
2022/03/22 03:36:34;;;;;;;20.47;11.97;;;0.20;99.90;;;;;;4994545;28;20172;-75
2022/03/22 03:39:03;;;;;;;20.03;11.20;;;0.20;99.90;;;;;;4991813;28;20438;-74
2022/03/22 03:47:07;;;;;;;14.13;10.50;;;0.20;99.90;;;;;;4993380;28;20436;-76
2022/03/22 03:49:42;;;;;;;24.30;11.20;;;0.20;99.90;;;;;;4993533;28;20421;-74
2022/03/22 03:52:20;;;;;;;18.40;12.30;;;0.20;99.90;;;;;;4992601;28;20409;-76
2022/03/22 03:54:46;;;;;;;21.33;11.20;;;0.10;99.90;;;;;;4992948;28;20967;-76
2022/03/22 03:57:13;;;;;;;19.80;11.30;;;0.10;99.90;;;;;;4992940;28;20418;-73
2022/03/22 03:59:40;;;;;;;16.17;10.60;;;0.10;99.90;;;;;;4992911;28;20395;-75
2022/03/22 04:02:06;;;;;;;16.67;10.90;;;0.10;99.90;;;;;;4990650;28;20447;-75
2022/03/22 04:04:35;;;;;;;20.33;12.37;;;0.10;99.90;;;;;;4991885;28;20923;-74
2022/03/22 04:07:04;;;;;;;19.90;10.60;;;0.10;99.90;;;;;;4992733;28;20513;-75
2022/03/22 04:09:31;;;;;;;16.67;11.67;;;0.10;99.90;;;;;;4992879;28;20765;-76
2022/03/22 04:11:56;;;;;;;15.30;10.33;;;0.00;99.90;;;;;;4992338;28;20442;-77
2022/03/22 04:14:22;;;;;;;17.80;11.07;;;0.00;99.90;;;;;;4992220;28;20470;-77
2022/03/22 04:16:49;;;;;;;19.80;10.30;;;0.00;99.90;;;;;;4992742;28;20172;-76
2022/03/22 04:19:15;;;;;;;14.57;10.60;;;0.00;99.90;;;;;;4991932;28;20715;-75
2022/03/22 04:21:41;;;;;;;17.93;10.23;;;0.00;99.90;;;;;;4992345;28;20505;-74
2022/03/22 04:24:09;;;;;;;17.30;10.30;;;-0.10;99.90;;;;;;4991782;28;20509;-76
2022/03/22 04:26:39;;;;;;;16.50;11.30;;;-0.10;99.90;;;;;;4992501;28;20184;-75
2022/03/22 04:34:34;;;;;;;17.67;11.20;;;-0.10;99.90;;;;;;4991497;28;20470;-76
2022/03/22 04:37:00;;;;;;;19.87;10.47;;;-0.10;99.90;;;;;;4991084;28;20422;-75
2022/03/22 04:39:27;;;;;;;15.90;10.80;;;-0.10;99.90;;;;;;4991880;28;20190;-74
2022/03/22 04:41:53;;;;;;;18.47;10.90;;;-0.10;99.90;;;;;;4991849;28;20406;-74
2022/03/22 04:44:19;;;;;;;17.70;11.47;;;-0.20;99.90;;;;;;4991675;28;20421;-75
2022/03/22 04:46:45;;;;;;;15.10;10.90;;;-0.10;99.90;;;;;;4991949;28;20441;-74
2022/03/22 04:49:11;;;;;;;19.23;11.00;;;-0.10;99.90;;;;;;4992087;28;20175;-76
2022/03/22 04:57:05;;;;;;;18.70;11.10;;;-0.10;99.90;;;;;;4992106;28;20477;-73
2022/03/22 04:59:30;;;;;;;17.33;10.37;;;-0.10;99.90;;;;;;4992014;28;20507;-73
2022/03/22 05:01:57;;;;;;;20.53;12.03;;;-0.10;99.90;;;;;;4991113;28;20195;-72
2022/03/22 05:04:22;;;;;;;18.93;10.80;;;-0.10;99.90;;;;;;4991344;28;20184;-73
2022/03/22 05:06:48;;;;;;;22.43;12.10;;;-0.10;99.90;;;;;;4991936;28;20393;-73
2022/03/22 05:09:14;;;;;;;20.10;12.00;;;-0.10;99.90;;;;;;4991593;28;20270;-73
2022/03/22 05:11:39;;;;;;;19.73;11.30;;;-0.20;99.90;;;;;;4991740;28;20727;-71
2022/03/22 05:14:05;;;;;;;21.57;11.17;;;-0.10;99.90;;;;;;4990425;28;20207;-73
2022/03/22 05:16:31;;;;;;;19.20;11.27;;;-0.20;99.90;;;;;;4991974;28;20234;-74
2022/03/22 05:18:57;;;;;;;19.40;12.13;;;-0.20;99.90;;;;;;4992727;28;20593;-74
2022/03/22 05:21:27;;;;;;;21.03;12.97;;;-0.10;99.90;;;;;;4992848;28;20198;-75
2022/03/22 05:23:53;;;;;;;21.27;12.10;;;-0.10;99.90;;;;;;4989879;28;20418;-72
2022/03/22 05:26:19;;;;;;;17.87;9.77;;;-0.10;99.90;;;;;;4991302;28;20501;-74
2022/03/22 05:28:44;;;;;;;21.80;12.43;;;-0.10;99.90;;;;;;4991347;28;20852;-75
2022/03/22 05:31:13;;;;;;;17.27;10.60;;;-0.10;99.90;;;;;;4990441;28;20225;-74
2022/03/22 05:33:39;;;;;;;20.70;12.03;;;-0.10;99.90;;;;;;4990099;28;20458;-74
2022/03/22 05:36:05;;;;;;;22.07;12.87;;;-0.10;99.90;;;;;;4991097;28;20409;-77
2022/03/22 05:38:32;;;;;;;17.37;10.40;;;0.00;99.90;;;;;;4990918;28;20385;-76
2022/03/22 05:40:57;;;;;;;23.87;12.10;;;0.00;99.90;;;;;;4991709;28;20431;-77
2022/03/22 05:43:26;;;;;;;20.07;11.70;;;0.00;99.90;;;;;;4990612;28;20403;-77
2022/03/22 05:45:52;;;;;;;19.90;11.97;;;0.00;99.90;;;;;;4990299;28;20640;-76
2022/03/22 05:48:18;;;;;;;18.43;12.10;;;0.10;99.90;;;;;;4991108;28;20434;-76
2022/03/22 05:50:44;;;;;;;17.20;11.73;;;0.20;99.90;;;;;;4991790;28;20234;-77
2022/03/22 05:53:10;;;;;;;15.00;10.93;;;0.30;99.90;;;;;;4990826;28;20461;-75
2022/03/22 05:55:40;;;;;;;17.73;11.27;;;0.30;99.90;;;;;;4990131;28;20419;-75
2022/03/22 05:58:06;;;;;;;20.80;12.00;;;0.40;99.90;;;;;;4990833;28;20182;-75
2022/03/22 06:00:32;;;;;;;22.70;12.13;;;0.50;99.90;;;;;;4991032;28;20783;-73
2022/03/22 06:02:57;;;;;;;20.50;12.50;;;0.60;99.90;;;;;;4989946;28;20447;-76
2022/03/22 06:05:23;;;;;;;23.03;12.40;;;0.80;99.90;;;;;;4991110;28;20182;-76
2022/03/22 06:07:49;;;;;;;22.93;12.60;;;1.30;99.90;;;;;;4989441;28;20274;-76
2022/03/22 06:10:14;;;;;;;20.30;12.63;;;2.50;99.90;;;;;;4990376;28;20197;-75
2022/03/22 06:12:51;;;;;;;23.00;11.30;;;3.80;99.90;;;;;;4990707;28;20738;-75
2022/03/22 06:15:31;;;;;;;20.70;12.63;;;5.00;99.90;;;;;;4989477;28;20181;-75
2022/03/22 06:18:04;;;;;;;20.77;12.63;;;6.00;99.90;;;;;;4990424;28;20442;-76
2022/03/22 06:20:32;;;;;;;25.57;14.03;;;6.90;99.90;;;;;;4991097;28;20418;-76
2022/03/22 06:22:59;;;;;;;26.03;13.20;;;7.70;99.90;;;;;;4990255;28;20466;-75
2022/03/22 06:25:24;;;;;;;16.63;13.63;;;8.20;99.90;;;;;;4990748;28;20906;-76
2022/03/22 06:27:52;;;;;;;16.73;13.70;;;9.10;99.90;;;;;;4990869;28;20417;-77
2022/03/22 06:30:18;;;;;;;19.20;13.80;;;9.50;99.90;;;;;;4989597;28;20188;-76
2022/03/22 06:32:52;;;;;;;21.50;13.97;;;10.10;99.90;;;;;;4989784;28;20512;-74
2022/03/22 06:35:24;;;;;;;20.47;13.63;;;10.60;99.90;;;;;;4990493;28;20436;-77
2022/03/22 06:37:50;;;;;;;22.47;15.13;;;11.30;99.90;;;;;;4989404;28;20473;-76
2022/03/22 06:40:18;;;;;;;20.20;14.27;;;11.80;99.90;;;;;;4983382;28;20856;-75
2022/03/22 06:42:44;;;;;;;19.77;13.73;;;12.00;99.90;;;;;;4977960;28;20998;-74
2022/03/22 06:45:11;;;;;;;21.90;13.97;;;12.70;99.90;;;;;;4988051;28;20477;-76
2022/03/22 06:47:39;;;;;;;19.40;14.13;;;13.50;99.90;;;;;;4989781;28;20415;-77
2022/03/22 06:50:06;;;;;;;21.10;15.33;;;13.60;99.90;;;;;;4990591;28;20945;-77
2022/03/22 06:52:32;;;;;;;21.27;15.10;;;13.40;99.90;;;;;;4992617;28;20453;-75
2022/03/22 06:54:57;;;;;;;20.37;16.07;;;13.50;99.90;;;;;;4992628;28;20431;-75
2022/03/22 06:57:23;;;;;;;22.03;15.93;;;13.90;99.90;;;;;;4993815;28;20179;-77
2022/03/22 06:59:49;;;;;;;20.80;14.97;;;14.10;99.90;;;;;;4978821;28;20275;-76
2022/03/22 07:02:14;;;;;;;16.90;14.97;;;14.20;99.90;;;;;;4974215;28;20207;-76
2022/03/22 07:04:40;;;;;;;21.20;14.53;;;15.00;99.90;;;;;;4973524;28;20223;-78
2022/03/22 07:07:07;;;;;;;21.07;14.80;;;15.10;99.60;;;;;;4974122;28;20275;-77
2022/03/22 07:09:33;;;;;;;25.27;17.47;;;15.00;98.20;;;;;;4974371;28;20180;-75
2022/03/22 07:12:00;;;;;;;23.40;16.40;;;15.10;98.00;;;;;;4974199;28;20767;-76
2022/03/22 07:14:27;;;;;;;26.40;17.70;;;15.00;97.70;;;;;;4973890;28;20231;-76
2022/03/22 07:16:54;;;;;;;22.70;17.20;;;14.90;98.50;;;;;;4973747;28;20422;-76
2022/03/22 07:19:21;;;;;;;30.83;19.83;;;14.60;98.50;;;;;;4974348;28;20419;-77
2022/03/22 07:21:48;;;;;;;30.63;18.87;;;14.20;98.80;;;;;;4973668;28;20439;-76
2022/03/22 07:24:15;;;;;;;26.60;17.87;;;13.70;98.60;;;;;;4972606;28;20423;-76
2022/03/22 07:26:41;;;;;;;33.80;19.10;;;13.60;99.50;;;;;;4974079;28;20423;-76
2022/03/22 07:29:07;;;;;;;24.90;18.33;;;13.00;98.70;;;;;;4972605;28;20432;-76
2022/03/22 07:31:40;;;;;;;21.70;16.53;;;12.80;99.90;;;;;;4973500;28;20502;-75
2022/03/22 07:34:07;;;;;;;28.13;18.67;;;12.40;99.90;;;;;;4972971;28;20494;-76
2022/03/22 07:36:35;;;;;;;35.03;17.47;;;12.50;99.90;;;;;;4973376;28;20502;-74
2022/03/22 07:39:02;;;;;;;29.80;17.87;;;12.60;99.90;;;;;;4974012;28;20892;-75
2022/03/22 07:41:27;;;;;;;38.50;18.73;;;12.80;99.90;;;;;;4973622;28;20450;-75
2022/03/22 07:43:54;;;;;;;29.10;16.53;;;12.70;99.00;;;;;;4972977;28;20800;-74
2022/03/22 07:46:26;;;;;;;26.57;17.30;;;12.40;99.90;;;;;;4974143;28;20188;-75
2022/03/22 07:48:52;;;;;;;29.77;16.70;;;12.20;99.90;;;;;;4972836;28;20780;-75
2022/03/22 07:54:03;;;;;;;26.37;16.77;;;12.50;98.30;;;;;;4972793;28;20517;-75
2022/03/22 07:56:30;;;;;;;32.90;17.83;;;12.30;98.40;;;;;;4974005;28;20782;-76
2022/03/22 07:58:56;;;;;;;25.10;17.13;;;12.50;98.70;;;;;;4973045;28;20821;-75
2022/03/22 08:01:22;;;;;;;24.40;15.90;;;12.40;98.40;;;;;;4972436;28;20436;-75
2022/03/22 08:03:47;;;;;;;18.53;15.70;;;12.60;99.90;;;;;;4972332;28;20835;-75
2022/03/22 08:06:13;;;;;;;27.73;18.40;;;12.60;98.10;;;;;;4973137;28;20180;-76
2022/03/22 08:08:43;;;;;;;27.70;15.83;;;12.80;98.30;;;;;;4973277;28;20175;-76
2022/03/22 08:11:09;;;;;;;28.53;18.80;;;12.90;97.10;;;;;;4972864;28;20242;-75
2022/03/22 08:13:36;;;;;;;27.63;17.37;;;13.00;97.90;;;;;;4971682;28;20466;-75
2022/03/22 08:16:02;;;;;;;27.67;16.83;;;13.10;97.50;;;;;;4973004;28;20411;-76
2022/03/22 08:18:28;;;;;;;24.47;17.10;;;13.10;97.40;;;;;;4973376;28;20981;-76
2022/03/22 08:20:53;;;;;;;27.57;16.70;;;13.50;97.60;;;;;;4971811;28;20485;-76
2022/03/22 08:23:19;;;;;;;24.00;17.00;;;13.50;96.50;;;;;;4972235;28;20204;-76
2022/03/22 08:25:46;;;;;;;24.33;17.03;;;13.50;96.20;;;;;;4972445;28;20180;-75
2022/03/22 08:28:12;;;;;;;26.50;17.97;;;13.60;96.40;;;;;;4972556;28;20243;-74
2022/03/22 08:30:38;;;;;;;27.27;18.60;;;13.70;96.40;;;;;;4971918;28;20462;-75
2022/03/22 08:33:06;;;;;;;28.73;17.90;;;13.40;96.70;;;;;;4969723;28;20762;-75
2022/03/22 08:35:32;;;;;;;23.60;16.13;;;13.70;96.40;;;;;;4972034;28;20498;-74
2022/03/22 08:37:57;;;;;;;25.97;16.97;;;14.00;96.50;;;;;;4972509;28;20498;-75
2022/03/22 08:40:23;;;;;;;25.83;17.47;;;14.20;97.10;;;;;;4972814;28;20642;-76
2022/03/22 08:42:52;;;;;;;26.50;17.00;;;14.20;95.30;;;;;;4969924;28;20211;-75
2022/03/22 08:45:19;;;;;;;28.77;17.87;;;14.40;95.20;;;;;;4972383;28;20647;-75
2022/03/22 08:47:47;;;;;;;26.77;17.20;;;14.30;95.30;;;;;;4972008;28;20415;-76
2022/03/22 08:50:15;;;;;;;26.50;18.17;;;14.60;96.40;;;;;;4972286;28;20422;-75
2022/03/22 08:52:41;;;;;;;28.33;17.90;;;14.70;95.60;;;;;;4972272;28;20427;-76
2022/03/22 08:55:09;;;;;;;26.80;17.30;;;14.80;95.20;;;;;;4971733;28;21058;-76
2022/03/22 08:57:36;;;;;;;29.40;16.80;;;15.20;95.20;;;;;;4972324;28;20420;-76
2022/03/22 09:00:09;;;;;;;23.70;16.20;;;15.30;93.70;;;;;;4973116;28;20474;-76
2022/03/22 09:02:38;;;;;;;26.80;18.27;;;15.50;94.40;;;;;;4980107;28;20446;-76
2022/03/22 09:07:51;;;;;;;24.30;18.27;;;15.60;93.10;;;;;;4991053;28;20421;-76
2022/03/22 09:10:19;;;;;;;24.73;17.23;;;15.80;93.20;;;;;;4991091;28;20438;-76
2022/03/22 09:12:45;;;;;;;27.73;17.93;;;16.20;93.80;;;;;;4990874;28;20462;-75
2022/03/22 09:15:11;;;;;;;24.30;16.27;;;16.10;91.00;;;;;;4989823;28;20461;-76
2022/03/22 09:17:37;;;;;;;28.63;17.07;;;16.00;91.60;;;;;;4991356;28;20184;-76
2022/03/22 09:20:04;;;;;;;28.50;18.10;;;16.10;91.60;;;;;;4991006;28;20425;-76
2022/03/22 09:22:29;;;;;;;35.70;17.87;;;16.50;91.00;;;;;;4990798;28;20426;-76
2022/03/22 09:24:55;;;;;;;26.30;17.20;;;16.30;90.20;;;;;;4991080;28;20434;-78
2022/03/22 09:27:20;;;;;;;26.53;18.70;;;16.60;90.90;;;;;;4991478;28;20660;-76
2022/03/22 09:29:46;;;;;;;25.03;17.07;;;16.70;90.40;;;;;;4990846;28;20209;-76
2022/03/22 09:32:12;;;;;;;25.83;17.60;;;17.10;90.60;;;;;;4990230;28;20231;-75
2022/03/22 09:34:38;;;;;;;25.33;17.57;;;17.20;91.00;;;;;;4989876;28;20277;-76
2022/03/22 09:37:03;;;;;;;26.63;16.40;;;17.60;90.20;;;;;;4990912;28;20182;-76
2022/03/22 09:39:29;;;;;;;28.63;18.00;;;17.60;88.70;;;;;;4990585;28;20426;-77
2022/03/22 09:41:56;;;;;;;31.27;17.57;;;17.60;91.00;;;;;;4990743;28;20198;-76
2022/03/22 09:44:21;;;;;;;22.00;17.43;;;17.60;90.80;;;;;;4990239;28;20616;-77
2022/03/22 09:46:49;;;;;;;31.00;19.50;;;17.90;90.10;;;;;;4990566;28;20414;-76
2022/03/22 09:49:16;;;;;;;24.10;16.80;;;17.80;86.60;;;;;;4990679;28;20206;-77
2022/03/22 09:51:47;;;;;;;23.37;17.67;;;17.90;88.80;;;;;;4991028;28;20438;-77
2022/03/22 09:54:18;;;;;;;29.80;18.50;;;18.00;91.10;;;;;;4990331;28;20928;-75
2022/03/22 09:56:44;;;;;;;25.57;16.97;;;18.20;87.00;;;;;;4990240;28;20526;-77
2022/03/22 09:59:11;;;;;;;23.30;17.60;;;18.10;86.50;;;;;;4990476;28;20962;-76
2022/03/22 10:01:37;;;;;;;25.00;17.00;;;18.60;90.30;;;;;;4990582;28;20529;-76
2022/03/22 10:04:06;;;;;;;26.10;17.07;;;18.80;85.60;;;;;;4989670;28;20482;-76
2022/03/22 10:06:33;;;;;;;22.10;17.10;;;18.60;84.70;;;;;;4990515;28;20422;-75
2022/03/22 10:08:59;;;;;;;22.83;17.80;;;18.50;83.80;;;;;;4989534;28;20954;-75
2022/03/22 10:11:39;;;;;;;27.23;18.40;;;18.80;84.60;;;;;;4990477;28;20449;-76
2022/03/22 10:14:05;;;;;;;25.50;18.00;;;18.40;82.60;;;;;;4989555;28;20501;-76
2022/03/22 10:16:30;;;;;;;25.70;17.90;;;18.70;85.10;;;;;;4990694;28;20981;-78
2022/03/22 10:18:59;;;;;;;22.80;17.10;;;18.40;79.50;;;;;;4992350;28;20484;-76
2022/03/22 10:21:24;;;;;;;25.80;17.37;;;18.40;81.00;;;;;;5022237;22;20239;-73
2022/03/22 10:23:55;;;;;;;23.70;17.00;;;18.60;80.00;;;;;;4991485;28;20472;-74
2022/03/22 10:26:30;;;;;;;27.37;17.57;;;18.70;81.30;;;;;;4995285;28;20237;-73
2022/03/22 10:28:56;;;;;;;26.07;17.33;;;19.00;78.70;;;;;;4996708;28;20409;-73
2022/03/22 10:31:33;;;;;;;20.77;16.47;;;19.00;75.40;;;;;;4995963;28;20439;-73
2022/03/22 10:34:00;;;;;;;21.13;17.20;;;19.10;76.30;;;;;;4994903;28;20453;-73
2022/03/22 10:36:26;;;;;;;23.80;16.27;;;18.90;76.10;;;;;;4994747;28;20502;-74
2022/03/22 10:39:03;;;;;;;26.60;17.37;;;19.20;76.90;;;;;;4993855;28;20824;-73
2022/03/22 10:41:38;;;;;;;25.63;17.17;;;19.00;76.00;;;;;;4995409;28;20496;-73
2022/03/22 10:44:09;;;;;;;24.63;17.47;;;19.10;73.40;;;;;;4994478;28;20425;-73
2022/03/22 10:46:36;;;;;;;23.93;18.10;;;19.30;73.00;;;;;;4993163;28;20427;-73
2022/03/22 10:49:10;;;;;;;25.20;17.77;;;19.50;75.60;;;;;;4993546;28;20501;-72
2022/03/22 10:51:47;;;;;;;23.50;16.60;;;19.50;74.00;;;;;;4993336;28;20445;-73
2022/03/22 10:54:17;;;;;;;27.90;18.27;;;19.80;73.70;;;;;;4992955;28;20596;-72
2022/03/22 10:56:50;;;;;;;24.77;17.87;;;19.80;75.10;;;;;;4986882;28;20521;-73
2022/03/22 10:59:18;;;;;;;23.60;16.93;;;19.90;74.80;;;;;;4978354;28;20411;-72
2022/03/22 11:01:45;;;;;;;23.47;17.00;;;19.70;71.70;;;;;;4973816;28;20431;-72
2022/03/22 11:04:16;;;;;;;23.17;15.87;;;19.80;76.10;;;;;;4973835;28;20426;-72
2022/03/22 11:06:46;;;;;;;28.07;17.97;;;20.00;74.40;;;;;;4974071;28;20415;-73
2022/03/22 11:09:13;;;;;;;24.30;17.17;;;19.70;72.60;;;;;;4973873;28;20927;-71
2022/03/22 11:11:39;;;;;;;20.17;16.77;;;20.10;72.80;;;;;;4973842;28;20466;-73
2022/03/22 11:14:04;;;;;;;22.37;17.53;;;20.00;72.50;;;;;;4973106;28;20466;-73
2022/03/22 11:16:34;;;;;;;25.33;18.53;;;19.90;73.20;;;;;;4973796;28;20172;-72
2022/03/22 11:19:00;;;;;;;22.70;17.20;;;19.60;74.40;;;;;;4972138;28;20172;-73
2022/03/22 11:21:27;;;;;;;23.23;17.00;;;19.50;72.00;;;;;;4973843;28;20475;-71
2022/03/22 11:24:13;;;;;;;22.60;16.60;;;18.30;71.60;;;;;;4973022;28;20471;-71
2022/03/22 11:26:44;;;;;;;27.83;17.43;;;18.60;76.90;;;;;;4974008;28;20554;-71
2022/03/22 11:29:12;;;;;;;22.30;16.73;;;19.00;75.70;;;;;;4973206;28;20424;-72
2022/03/22 11:31:40;;;;;;;27.97;18.60;;;19.20;74.10;;;;;;4973637;28;20444;-72
2022/03/22 11:34:11;;;;;;;23.97;17.13;;;19.30;71.60;;;;;;4972461;28;20467;-72
2022/03/22 11:36:49;;;;;;;22.07;16.20;;;19.10;70.80;;;;;;4972026;28;20569;-71
2022/03/22 11:39:19;;;;;;;20.80;17.40;;;19.20;71.90;;;;;;4973325;28;20419;-72
2022/03/22 11:44:38;;;;;;;27.80;17.93;;;19.00;71.30;;;;;;4973767;28;21036;-69
2022/03/22 11:47:11;;;;;;;24.20;16.00;;;18.80;71.30;;;;;;4975342;28;20428;-69
2022/03/22 11:49:52;;;;;;;20.27;15.93;;;18.80;72.50;;;;;;4976067;28;20450;-69
2022/03/22 11:52:21;;;;;;;26.27;17.80;;;19.00;70.90;;;;;;4976122;28;20501;-70
2022/03/22 11:54:58;;;;;;;24.97;17.50;;;19.00;70.20;;;;;;4975369;28;20462;-70
2022/03/22 11:57:24;;;;;;;18.97;16.10;;;19.00;69.10;;;;;;4977123;28;20557;-69
2022/03/22 11:59:52;;;;;;;24.00;17.20;;;18.90;70.10;;;;;;4977193;28;20833;-70
2022/03/22 12:02:21;;;;;;;21.10;16.67;;;19.00;72.10;;;;;;4976811;28;20442;-69
2022/03/22 12:04:52;;;;;;;24.63;17.90;;;18.90;73.90;;;;;;4976071;28;20415;-69
2022/03/22 12:07:47;;;;;;;25.40;18.63;;;19.10;72.90;;;;;;4976461;28;20470;-70
2022/03/22 12:10:15;;;;;;;23.67;18.20;;;18.70;70.00;;;;;;4958487;28;20506;-69
2022/03/22 12:12:48;;;;;;;27.83;17.60;;;18.20;70.70;;;;;;4975927;28;20451;-70
2022/03/22 12:15:16;;;;;;;25.33;18.17;;;17.90;72.20;;;;;;4993875;28;20422;-69
2022/03/22 12:17:42;;;;;;;21.50;16.97;;;18.20;73.10;;;;;;4993821;28;20834;-70
2022/03/22 12:20:13;;;;;;;29.63;17.77;;;18.00;70.90;;;;;;4994370;28;20790;-69
2022/03/22 12:22:45;;;;;;;22.07;17.23;;;18.00;71.80;;;;;;4994397;28;20458;-69
2022/03/22 12:25:13;;;;;;;24.20;17.40;;;17.90;71.70;;;;;;4993534;28;20898;-69
2022/03/22 12:27:52;;;;;;;22.57;17.40;;;17.90;71.80;;;;;;4993724;28;20411;-69
2022/03/22 12:30:20;;;;;;;23.33;16.90;;;18.00;76.30;;;;;;4992356;28;20419;-69
2022/03/22 12:32:48;;;;;;;24.73;17.70;;;18.00;72.40;;;;;;4992019;28;20855;-68
2022/03/22 12:35:13;;;;;;;21.03;16.40;;;17.80;72.60;;;;;;4993223;28;20435;-69
2022/03/22 12:37:39;;;;;;;21.63;15.80;;;17.70;71.30;;;;;;4992151;28;20411;-69
2022/03/22 12:40:05;;;;;;;30.53;18.60;;;17.80;72.70;;;;;;4992858;28;20172;-69
2022/03/22 12:42:31;;;;;;;25.27;18.07;;;17.60;72.70;;;;;;4993869;28;20242;-69
2022/03/22 12:44:58;;;;;;;25.30;17.30;;;17.60;74.90;;;;;;4993154;28;20411;-68
2022/03/22 12:47:24;;;;;;;21.70;16.40;;;17.60;75.00;;;;;;4995108;28;20259;-70
2022/03/22 12:49:49;;;;;;;32.83;18.50;;;17.70;73.30;;;;;;4996051;28;20454;-69
2022/03/22 12:52:15;;;;;;;23.23;16.87;;;17.70;71.20;;;;;;4996585;28;20214;-69
2022/03/22 12:54:42;;;;;;;21.90;16.50;;;17.90;73.50;;;;;;4995355;28;20210;-69
2022/03/22 12:57:16;;;;;;;22.07;17.20;;;18.00;75.00;;;;;;4995444;28;20178;-69
2022/03/22 12:59:42;;;;;;;27.90;16.13;;;17.80;71.50;;;;;;4994509;28;20499;-69
2022/03/22 13:02:10;;;;;;;32.33;15.70;;;17.70;72.90;;;;;;4993735;28;20508;-69
2022/03/22 13:04:46;;;;;;;25.93;17.27;;;17.80;71.20;;;;;;4993905;28;20946;-69
2022/03/22 13:07:14;;;;;;;24.30;17.00;;;17.80;69.70;;;;;;4995103;28;20418;-69
2022/03/22 13:12:24;;;;;;;21.77;15.00;;;17.60;69.50;;;;;;4995640;28;20509;-69
2022/03/22 13:15:07;;;;;;;33.43;18.17;;;17.60;69.00;;;;;;4992953;28;20466;-69
2022/03/22 13:17:48;;;;;;;24.87;15.37;;;17.60;69.60;;;;;;4995133;28;20214;-68
2022/03/22 13:20:21;;;;;;;22.33;15.17;;;17.70;70.90;;;;;;4995155;28;20749;-69
2022/03/22 13:22:59;;;;;;;21.43;15.90;;;17.60;68.70;;;;;;4995272;28;20955;-67
2022/03/22 13:25:30;;;;;;;22.93;16.60;;;17.50;71.20;;;;;;4996457;28;20913;-68
2022/03/22 13:28:02;;;;;;;29.10;16.90;;;17.50;70.00;;;;;;4996273;28;20406;-70
2022/03/22 13:30:30;;;;;;;23.63;14.80;;;17.30;68.90;;;;;;4994367;28;20434;-69
2022/03/22 13:33:16;;;;;;;18.10;14.87;;;17.30;70.30;;;;;;4992951;28;21017;-69
2022/03/22 13:35:59;;;;;;;17.90;15.07;;;17.40;71.70;;;;;;4993748;28;20430;-68
2022/03/22 13:38:27;;;;;;;20.83;15.87;;;17.60;73.00;;;;;;4992014;28;20449;-71
2022/03/22 13:40:57;;;;;;;21.47;16.17;;;17.70;72.70;;;;;;4991263;28;20766;-72
2022/03/22 13:43:23;;;;;;;21.90;15.50;;;17.60;68.30;;;;;;4989299;28;20422;-72
2022/03/22 13:46:00;;;;;;;21.10;15.00;;;17.60;68.80;;;;;;4990654;28;20419;-72
2022/03/22 13:48:26;;;;;;;27.57;15.40;;;17.70;68.70;;;;;;4987986;28;20438;-72
2022/03/22 13:50:53;;;;;;;27.07;16.50;;;17.50;68.10;;;;;;4985655;28;20436;-73
2022/03/22 13:53:32;;;;;;;19.23;15.17;;;17.40;68.50;;;;;;4983266;28;20220;-72
2022/03/22 13:56:00;;;;;;;23.43;15.90;;;17.40;68.30;;;;;;4976157;28;20498;-72
2022/03/22 13:58:35;;;;;;;19.57;15.63;;;17.50;71.10;;;;;;4968533;28;20411;-72
2022/03/22 14:01:00;;;;;;;21.40;15.93;;;17.40;68.90;;;;;;4988634;28;20442;-72
2022/03/22 14:03:26;;;;;;;20.70;15.40;;;17.40;67.50;;;;;;4996823;28;20420;-72
2022/03/22 14:05:52;;;;;;;20.33;15.50;;;17.40;66.90;;;;;;4996924;28;20237;-71
2022/03/22 14:08:20;;;;;;;20.27;15.03;;;17.40;67.50;;;;;;4997236;28;20899;-71
2022/03/22 14:10:47;;;;;;;22.90;15.17;;;17.30;68.00;;;;;;4995847;28;20175;-72
2022/03/22 14:13:15;;;;;;;27.17;15.70;;;17.30;65.40;;;;;;4996305;28;20990;-71
2022/03/22 14:15:41;;;;;;;21.80;15.17;;;17.40;66.30;;;;;;4997203;28;20517;-72
2022/03/22 14:18:08;;;;;;;24.40;16.30;;;17.40;65.80;;;;;;4996768;28;20854;-72
2022/03/22 14:20:34;;;;;;;22.50;16.10;;;17.50;67.00;;;;;;4996956;28;20449;-71
2022/03/22 14:23:01;;;;;;;23.70;16.80;;;17.50;68.40;;;;;;4996119;28;20587;-72
2022/03/22 14:25:27;;;;;;;20.40;14.83;;;17.50;68.20;;;;;;4997285;28;20414;-72
2022/03/22 14:27:54;;;;;;;18.63;15.00;;;17.40;68.20;;;;;;4996651;28;20468;-71
2022/03/22 14:30:22;;;;;;;20.80;15.10;;;17.30;70.10;;;;;;4996923;28;20272;-72
2022/03/22 14:32:50;;;;;;;20.70;14.93;;;17.40;69.70;;;;;;4996128;28;20438;-71